Time;durP1;ratioP1;P1;durP2;ratioP2;P2;SDS_P1;SDS_P2;PMS_P1;PMS_P2;Temp;Humidity;BMP_temperature;BMP_pressure;BME280_temperature;BME280_humidity;BME280_pressure;Samples;Min_cycle;Max_cycle;Signal;HPM_P1;HPM_P2
2022/03/28 00:01:00;;;;;;;9.00;3.60;;;5.90;99.90;;;;;;4999553;28;20116;-68
2022/03/28 00:03:28;;;;;;;4.60;2.13;;;5.90;99.90;;;;;;5002270;28;20045;-66
2022/03/28 00:05:55;;;;;;;6.90;2.63;;;5.80;99.90;;;;;;5004695;28;20144;-64
2022/03/28 00:08:22;;;;;;;5.85;1.92;;;5.80;99.90;;;;;;5001977;28;20046;-66
2022/03/28 00:10:50;;;;;;;4.43;2.38;;;5.80;99.90;;;;;;5009945;28;20144;-65
2022/03/28 00:13:17;;;;;;;5.15;2.88;;;5.90;99.90;;;;;;5007300;28;20514;-65
2022/03/28 00:15:44;;;;;;;9.77;2.55;;;5.90;99.90;;;;;;5004730;28;20050;-64
2022/03/28 00:18:11;;;;;;;4.53;2.60;;;5.90;99.90;;;;;;4993120;28;20140;-65
2022/03/28 00:20:39;;;;;;;11.82;2.88;;;5.80;99.90;;;;;;4994498;28;20156;-66
2022/03/28 00:23:06;;;;;;;4.85;1.45;;;5.80;99.90;;;;;;5004078;28;20054;-66
2022/03/28 00:25:34;;;;;;;5.55;1.50;;;5.70;99.90;;;;;;5002709;28;20085;-67
2022/03/28 00:28:01;;;;;;;4.63;2.05;;;5.80;99.90;;;;;;5003396;28;20137;-68
2022/03/28 00:30:28;;;;;;;9.18;1.48;;;5.80;99.90;;;;;;5008740;28;20499;-66
2022/03/28 00:32:55;;;;;;;2.83;1.23;;;5.80;99.90;;;;;;5004259;28;20396;-65
2022/03/28 00:35:24;;;;;;;5.32;2.40;;;5.90;99.90;;;;;;4993491;28;20149;-69
2022/03/28 00:37:53;;;;;;;5.03;1.60;;;6.00;99.90;;;;;;5004337;28;20053;-69
2022/03/28 00:40:20;;;;;;;3.60;1.40;;;6.00;99.90;;;;;;4991258;28;20137;-65
2022/03/28 00:42:48;;;;;;;3.15;1.00;;;6.10;99.90;;;;;;4997236;28;20112;-70
2022/03/28 00:45:15;;;;;;;5.45;1.77;;;6.00;99.90;;;;;;5001852;28;20061;-70
2022/03/28 00:47:43;;;;;;;6.53;1.63;;;6.00;99.90;;;;;;5003572;28;20173;-71
2022/03/28 00:50:10;;;;;;;4.80;1.10;;;5.90;99.90;;;;;;4992787;28;20839;-66
2022/03/28 00:52:38;;;;;;;3.28;1.50;;;5.90;99.90;;;;;;5001552;28;20081;-68
2022/03/28 00:55:07;;;;;;;4.40;1.38;;;5.90;99.90;;;;;;5002855;28;20077;-66
2022/03/28 00:57:34;;;;;;;7.25;2.58;;;5.90;99.90;;;;;;5001366;28;20065;-66
2022/03/28 01:00:05;;;;;;;2.75;1.17;;;5.90;99.90;;;;;;4990357;28;20145;-69
2022/03/28 01:02:32;;;;;;;2.92;1.83;;;5.90;99.90;;;;;;5003615;28;20050;-65
2022/03/28 01:04:59;;;;;;;3.05;1.38;;;5.90;99.90;;;;;;5003236;28;20127;-66
2022/03/28 01:07:26;;;;;;;2.72;1.95;;;5.90;99.90;;;;;;4999785;28;20085;-70
2022/03/28 01:09:55;;;;;;;11.65;2.63;;;5.90;99.90;;;;;;4998432;28;20052;-65
2022/03/28 01:12:25;;;;;;;5.53;1.00;;;6.00;99.90;;;;;;5002522;28;20124;-65
2022/03/28 01:14:53;;;;;;;5.30;0.90;;;5.90;99.90;;;;;;5006103;28;20049;-65
2022/03/28 01:20:06;;;;;;;3.67;1.00;;;6.00;99.90;;;;;;5002786;28;20479;-64
2022/03/28 01:22:33;;;;;;;3.05;0.77;;;6.00;99.90;;;;;;5002486;28;20116;-65
2022/03/28 01:25:03;;;;;;;3.00;1.20;;;6.00;99.90;;;;;;5000385;28;20046;-67
2022/03/28 01:27:30;;;;;;;4.27;1.87;;;6.00;99.90;;;;;;5001351;28;20061;-67
2022/03/28 01:29:57;;;;;;;2.95;1.25;;;6.00;99.90;;;;;;5007298;28;20061;-64
2022/03/28 01:32:25;;;;;;;4.03;1.10;;;6.00;99.90;;;;;;5003099;28;20136;-67
2022/03/28 01:34:51;;;;;;;1.50;0.90;;;5.90;99.90;;;;;;5002746;28;20774;-66
2022/03/28 01:37:18;;;;;;;2.17;1.23;;;5.90;99.90;;;;;;5014809;28;20061;-64
2022/03/28 01:39:45;;;;;;;4.05;1.23;;;5.90;99.90;;;;;;5006891;28;20056;-64
2022/03/28 01:42:12;;;;;;;3.78;1.08;;;5.80;99.90;;;;;;5007028;28;20098;-70
2022/03/28 01:44:39;;;;;;;2.17;1.33;;;5.80;99.90;;;;;;5005524;28;20644;-66
2022/03/28 01:47:06;;;;;;;4.40;1.48;;;5.80;99.90;;;;;;5004129;28;20045;-67
2022/03/28 01:49:33;;;;;;;4.85;1.10;;;5.80;99.90;;;;;;5000498;28;20078;-65
2022/03/28 01:52:00;;;;;;;4.47;0.90;;;5.80;99.90;;;;;;5005286;28;20056;-67
2022/03/28 01:54:27;;;;;;;2.17;1.27;;;5.80;99.90;;;;;;5007975;28;20073;-69
2022/03/28 01:56:53;;;;;;;2.60;1.05;;;5.80;99.90;;;;;;5002647;28;20492;-66
2022/03/28 01:59:20;;;;;;;4.75;1.40;;;5.80;99.90;;;;;;4992090;28;20045;-67
2022/03/28 02:01:47;;;;;;;2.03;1.15;;;5.80;99.90;;;;;;5001496;28;20156;-65
2022/03/28 02:04:14;;;;;;;3.50;1.10;;;5.80;99.90;;;;;;5001865;28;20133;-64
2022/03/28 02:06:41;;;;;;;1.75;1.30;;;5.80;99.90;;;;;;4990403;28;20061;-68
2022/03/28 02:09:08;;;;;;;9.00;2.67;;;5.80;99.90;;;;;;5001352;28;20046;-65
2022/03/28 02:11:35;;;;;;;3.70;1.00;;;5.80;99.90;;;;;;5012807;28;20052;-66
2022/03/28 02:14:02;;;;;;;2.75;0.95;;;5.80;99.90;;;;;;5002743;28;20479;-65
2022/03/28 02:16:29;;;;;;;0.88;0.65;;;5.70;99.90;;;;;;5002879;28;20148;-64
2022/03/28 02:18:57;;;;;;;1.35;0.77;;;5.70;99.90;;;;;;5002379;28;20112;-65
2022/03/28 02:21:24;;;;;;;2.83;1.20;;;5.70;99.90;;;;;;5000509;28;20137;-65
2022/03/28 02:23:51;;;;;;;3.10;1.80;;;5.70;99.90;;;;;;5002174;28;20124;-63
2022/03/28 02:26:18;;;;;;;2.80;1.52;;;5.60;99.90;;;;;;5001565;28;20135;-65
2022/03/28 02:28:45;;;;;;;1.80;1.25;;;5.60;99.90;;;;;;5001976;28;20152;-67
2022/03/28 02:31:12;;;;;;;2.47;0.90;;;5.60;99.90;;;;;;4997979;28;20060;-67
2022/03/28 02:33:39;;;;;;;3.97;0.95;;;5.60;99.90;;;;;;4995255;28;20108;-67
2022/03/28 02:36:06;;;;;;;4.00;1.27;;;5.50;99.90;;;;;;4989572;28;20046;-72
2022/03/28 02:38:33;;;;;;;2.35;0.80;;;5.60;99.90;;;;;;4999066;28;20050;-64
2022/03/28 02:41:00;;;;;;;6.55;1.35;;;5.50;99.90;;;;;;4999955;28;20781;-68
2022/03/28 02:43:27;;;;;;;4.32;0.98;;;5.50;99.90;;;;;;5000918;28;20145;-69
2022/03/28 02:45:54;;;;;;;3.28;0.85;;;5.50;99.90;;;;;;5013668;28;20132;-67
2022/03/28 02:48:21;;;;;;;3.63;1.52;;;5.50;99.90;;;;;;5000489;28;20046;-64
2022/03/28 02:50:49;;;;;;;4.95;1.05;;;5.50;99.90;;;;;;5001928;28;20136;-67
2022/03/28 02:53:16;;;;;;;8.98;1.13;;;5.50;99.90;;;;;;5000647;28;20081;-64
2022/03/28 02:55:43;;;;;;;2.65;1.35;;;5.40;99.90;;;;;;5005780;28;20050;-66
2022/03/28 02:58:10;;;;;;;3.35;0.80;;;5.50;99.90;;;;;;5005198;28;20453;-69
2022/03/28 03:00:37;;;;;;;1.77;1.42;;;5.40;99.90;;;;;;5015452;28;20744;-66
2022/03/28 03:03:04;;;;;;;3.03;1.05;;;5.50;99.90;;;;;;5003545;28;20060;-69
2022/03/28 03:05:31;;;;;;;1.35;0.82;;;5.50;99.90;;;;;;5002835;28;20139;-67
2022/03/28 03:07:58;;;;;;;3.85;1.15;;;5.50;99.90;;;;;;5005848;28;20153;-64
2022/03/28 03:10:25;;;;;;;1.67;0.85;;;5.50;99.90;;;;;;5003063;28;20733;-65
2022/03/28 03:12:52;;;;;;;4.97;1.67;;;5.40;99.90;;;;;;5009564;28;20172;-67
2022/03/28 03:15:19;;;;;;;4.97;2.05;;;5.40;99.90;;;;;;5004471;28;20050;-64
2022/03/28 03:17:46;;;;;;;5.45;2.70;;;5.40;99.90;;;;;;5005472;28;20152;-65
2022/03/28 03:20:13;;;;;;;2.88;1.30;;;5.40;99.90;;;;;;5005854;28;20104;-66
2022/03/28 03:22:40;;;;;;;6.97;1.23;;;5.40;99.90;;;;;;5003488;28;20157;-66
2022/03/28 03:25:07;;;;;;;4.15;1.15;;;5.40;99.90;;;;;;5005355;28;20641;-69
2022/03/28 03:27:38;;;;;;;3.45;1.38;;;5.30;99.90;;;;;;5003710;28;20412;-65
2022/03/28 03:30:07;;;;;;;3.38;0.85;;;5.30;99.90;;;;;;5005395;28;20062;-65
2022/03/28 03:32:35;;;;;;;3.75;1.63;;;5.30;99.90;;;;;;5003880;28;20054;-66
2022/03/28 03:35:04;;;;;;;3.28;1.20;;;5.40;99.90;;;;;;4999423;28;20546;-66
2022/03/28 03:37:31;;;;;;;3.22;1.25;;;5.50;99.90;;;;;;5003206;28;20148;-64
2022/03/28 03:39:58;;;;;;;4.57;1.40;;;5.50;99.90;;;;;;5002858;28;20050;-67
2022/03/28 03:42:25;;;;;;;3.67;1.30;;;5.50;99.90;;;;;;5005330;28;20745;-65
2022/03/28 03:44:52;;;;;;;1.20;1.00;;;5.50;99.90;;;;;;5005845;28;20054;-65
2022/03/28 03:47:19;;;;;;;3.70;1.05;;;5.50;99.90;;;;;;5002283;28;20061;-65
2022/03/28 03:49:46;;;;;;;5.28;1.10;;;5.50;99.90;;;;;;5000885;28;20050;-67
2022/03/28 03:52:13;;;;;;;5.35;1.40;;;5.40;99.90;;;;;;5004966;28;20533;-65
2022/03/28 03:54:40;;;;;;;4.78;1.63;;;5.40;99.90;;;;;;5003278;28;20053;-70
2022/03/28 03:57:07;;;;;;;8.10;1.30;;;5.40;99.90;;;;;;5003775;28;20046;-68
2022/03/28 03:59:34;;;;;;;3.20;2.00;;;5.40;99.90;;;;;;5004058;28;20368;-65
2022/03/28 04:02:01;;;;;;;3.50;0.93;;;5.40;99.90;;;;;;5004662;28;20164;-67
2022/03/28 04:04:28;;;;;;;3.33;1.70;;;5.40;99.90;;;;;;5004092;28;20050;-64
2022/03/28 04:06:55;;;;;;;1.52;0.98;;;5.50;99.90;;;;;;5004541;28;20050;-70
2022/03/28 04:09:22;;;;;;;6.15;0.90;;;5.40;99.90;;;;;;5002189;28;20137;-64
2022/03/28 04:11:50;;;;;;;6.50;1.95;;;5.40;99.90;;;;;;5003739;28;20054;-67
2022/03/28 04:14:17;;;;;;;4.70;1.00;;;5.30;99.90;;;;;;5001857;28;20057;-65
2022/03/28 04:16:44;;;;;;;3.55;0.90;;;5.30;99.90;;;;;;5000365;28;20559;-64
2022/03/28 04:19:12;;;;;;;3.08;1.17;;;5.40;99.90;;;;;;5000043;28;20376;-67
2022/03/28 04:21:39;;;;;;;2.60;0.93;;;5.40;99.90;;;;;;5003007;28;20136;-65
2022/03/28 04:24:06;;;;;;;4.35;2.30;;;5.40;99.90;;;;;;4998313;28;20157;-66
2022/03/28 04:26:33;;;;;;;4.35;2.03;;;5.40;99.90;;;;;;5002345;28;20136;-65
2022/03/28 04:29:00;;;;;;;2.65;1.60;;;5.40;99.90;;;;;;5001782;28;20084;-68
2022/03/28 04:31:27;;;;;;;2.85;1.50;;;5.40;99.90;;;;;;4992913;28;20105;-64
2022/03/28 04:33:54;;;;;;;11.38;2.63;;;5.50;99.90;;;;;;4990567;28;20152;-70
2022/03/28 04:36:23;;;;;;;7.13;1.65;;;5.50;99.90;;;;;;4996083;28;20058;-66
2022/03/28 04:38:50;;;;;;;1.80;1.02;;;5.50;99.90;;;;;;5003609;28;20077;-67
2022/03/28 04:41:17;;;;;;;5.00;2.25;;;5.50;99.90;;;;;;5000064;28;20068;-65
2022/03/28 04:43:44;;;;;;;5.57;1.15;;;5.50;99.90;;;;;;5003704;28;20096;-63
2022/03/28 04:46:11;;;;;;;5.03;1.17;;;5.50;99.90;;;;;;5005546;28;20051;-67
2022/03/28 04:48:47;;;;;;;7.32;1.35;;;5.50;99.90;;;;;;4995759;28;20049;-64
2022/03/28 04:51:13;;;;;;;8.93;2.42;;;5.50;99.90;;;;;;5008252;28;20046;-68
2022/03/28 04:53:40;;;;;;;2.22;1.55;;;5.50;99.90;;;;;;4992187;28;20491;-70
2022/03/28 04:56:07;;;;;;;4.90;1.73;;;5.60;99.90;;;;;;4996801;28;20057;-66
2022/03/28 04:58:34;;;;;;;5.35;1.92;;;5.50;99.90;;;;;;5002528;28;20391;-67
2022/03/28 05:01:06;;;;;;;4.57;1.30;;;5.60;99.90;;;;;;5001867;28;20140;-65
2022/03/28 05:03:33;;;;;;;5.80;2.55;;;5.60;99.90;;;;;;5001600;28;20179;-66
2022/03/28 05:06:00;;;;;;;5.55;1.10;;;5.60;99.90;;;;;;5003287;28;20050;-71
2022/03/28 05:08:27;;;;;;;4.80;1.13;;;5.70;99.90;;;;;;5003312;28;20056;-66
2022/03/28 05:10:54;;;;;;;10.88;2.72;;;5.70;99.90;;;;;;5002889;28;20157;-66
2022/03/28 05:13:21;;;;;;;2.13;1.25;;;5.70;99.90;;;;;;5001304;28;20081;-68
2022/03/28 05:15:48;;;;;;;7.80;2.15;;;5.70;99.90;;;;;;5002513;28;20719;-67
2022/03/28 05:18:15;;;;;;;6.88;1.60;;;5.70;99.90;;;;;;5001831;28;20038;-65
2022/03/28 05:20:42;;;;;;;7.60;2.22;;;5.80;99.90;;;;;;4985690;28;20860;-69
2022/03/28 05:23:09;;;;;;;4.15;1.70;;;5.80;99.90;;;;;;4991337;28;21035;-65
2022/03/28 05:25:36;;;;;;;5.72;2.40;;;5.80;99.90;;;;;;4991097;28;20097;-67
2022/03/28 05:28:03;;;;;;;3.72;2.25;;;5.80;99.90;;;;;;4996982;28;20046;-70
2022/03/28 05:30:30;;;;;;;3.60;1.58;;;5.80;99.90;;;;;;4998587;28;20042;-65
2022/03/28 05:32:57;;;;;;;5.95;1.98;;;5.90;99.90;;;;;;4989866;28;20054;-67
2022/03/28 05:35:24;;;;;;;4.80;1.75;;;5.90;99.90;;;;;;4993600;28;20090;-67
2022/03/28 05:37:51;;;;;;;9.02;2.38;;;5.90;99.90;;;;;;4984660;28;20134;-65
2022/03/28 05:40:18;;;;;;;6.90;2.08;;;5.90;99.90;;;;;;4991267;28;20076;-64
2022/03/28 05:42:45;;;;;;;3.80;2.28;;;5.90;99.90;;;;;;4987832;28;20137;-68
2022/03/28 05:45:13;;;;;;;10.05;3.35;;;5.90;99.90;;;;;;4993552;28;20046;-66
2022/03/28 05:47:40;;;;;;;12.13;2.40;;;5.90;99.90;;;;;;4993043;28;20369;-66
2022/03/28 05:50:08;;;;;;;9.25;2.38;;;5.90;99.90;;;;;;4995729;28;20053;-69
2022/03/28 05:52:35;;;;;;;10.40;2.88;;;6.00;99.90;;;;;;4999065;28;20133;-64
2022/03/28 05:55:01;;;;;;;6.82;2.63;;;6.00;99.90;;;;;;4995415;28;20084;-64
2022/03/28 05:57:28;;;;;;;9.25;2.33;;;6.00;99.90;;;;;;4992068;28;20123;-70
2022/03/28 05:59:57;;;;;;;10.70;2.13;;;6.00;99.90;;;;;;4994165;28;20050;-67
2022/03/28 06:02:24;;;;;;;15.10;3.40;;;6.00;99.90;;;;;;4994925;28;20171;-64
2022/03/28 06:04:52;;;;;;;5.32;2.67;;;6.00;99.90;;;;;;4992172;28;20503;-66
2022/03/28 06:07:18;;;;;;;9.55;2.80;;;6.10;99.90;;;;;;4995444;28;20586;-64
2022/03/28 06:09:45;;;;;;;14.02;4.60;;;6.10;99.90;;;;;;4996253;28;20373;-66
2022/03/28 06:12:13;;;;;;;14.70;5.03;;;6.10;99.90;;;;;;4987015;28;20104;-66
2022/03/28 06:14:40;;;;;;;7.00;2.53;;;6.10;99.90;;;;;;4995756;28;20129;-69
2022/03/28 06:17:07;;;;;;;12.50;4.65;;;6.10;99.90;;;;;;4999599;28;20479;-64
2022/03/28 06:19:33;;;;;;;5.50;2.72;;;6.10;99.90;;;;;;4995449;28;20148;-68
2022/03/28 06:22:00;;;;;;;6.43;2.08;;;6.10;99.90;;;;;;4994302;28;20081;-67
2022/03/28 06:24:27;;;;;;;6.93;2.88;;;6.10;99.90;;;;;;4986142;28;20054;-65
2022/03/28 06:26:54;;;;;;;9.00;2.58;;;6.10;99.90;;;;;;4994313;28;20155;-68
2022/03/28 06:29:21;;;;;;;10.40;2.97;;;6.00;99.90;;;;;;4992723;28;20141;-64
2022/03/28 06:31:48;;;;;;;12.45;3.65;;;6.10;99.90;;;;;;4991731;28;20050;-65
2022/03/28 06:34:16;;;;;;;19.33;4.45;;;6.10;99.90;;;;;;4994252;28;20054;-66
2022/03/28 06:36:44;;;;;;;8.40;3.92;;;6.10;99.90;;;;;;4972454;28;20124;-65
2022/03/28 06:39:11;;;;;;;6.03;2.45;;;6.10;99.90;;;;;;4992675;28;20201;-63
2022/03/28 06:41:38;;;;;;;9.38;4.13;;;6.10;99.90;;;;;;4991881;28;20244;-66
2022/03/28 06:44:08;;;;;;;7.00;2.55;;;6.10;99.90;;;;;;4993470;28;20864;-65
2022/03/28 06:46:35;;;;;;;7.30;3.03;;;6.20;99.90;;;;;;4989423;28;20144;-65
2022/03/28 06:49:02;;;;;;;8.98;3.22;;;6.20;99.90;;;;;;4994038;28;20081;-70
2022/03/28 06:51:29;;;;;;;5.57;3.85;;;6.30;99.90;;;;;;4994704;28;20057;-70
2022/03/28 06:53:56;;;;;;;8.95;4.43;;;6.30;99.90;;;;;;4994740;28;20049;-66
2022/03/28 06:56:23;;;;;;;7.47;3.72;;;6.30;99.90;;;;;;4993898;28;20050;-66
2022/03/28 06:58:50;;;;;;;6.88;3.25;;;6.30;99.90;;;;;;4992853;28;20132;-67
2022/03/28 07:01:16;;;;;;;10.25;3.25;;;6.30;99.90;;;;;;4993162;28;20066;-66
2022/03/28 07:03:44;;;;;;;18.58;4.53;;;6.30;99.90;;;;;;4998713;28;20464;-66
2022/03/28 07:06:11;;;;;;;12.50;3.90;;;6.20;99.90;;;;;;4993910;28;20121;-66
2022/03/28 07:08:38;;;;;;;15.40;3.75;;;6.20;99.90;;;;;;4986732;28;21417;-69
2022/03/28 07:11:05;;;;;;;12.70;5.13;;;6.20;99.90;;;;;;4988386;28;20141;-69
2022/03/28 07:13:32;;;;;;;9.80;4.32;;;6.30;99.90;;;;;;4987601;28;20049;-65
2022/03/28 07:15:59;;;;;;;10.07;3.60;;;6.30;99.90;;;;;;4996176;28;20049;-65
2022/03/28 07:18:26;;;;;;;10.43;4.82;;;6.30;99.90;;;;;;4993434;28;20061;-69
2022/03/28 07:20:53;;;;;;;7.97;4.13;;;6.40;99.90;;;;;;4993208;28;20144;-65
2022/03/28 07:23:20;;;;;;;12.88;5.53;;;6.40;99.90;;;;;;4994611;28;20117;-65
2022/03/28 07:25:47;;;;;;;7.88;5.18;;;6.50;99.90;;;;;;4991877;28;20088;-67
2022/03/28 07:28:15;;;;;;;9.38;3.92;;;6.50;99.90;;;;;;4989822;28;20065;-66
2022/03/28 07:30:42;;;;;;;10.25;4.20;;;6.50;99.90;;;;;;4992986;28;20056;-65
2022/03/28 07:33:09;;;;;;;6.53;4.35;;;6.50;99.90;;;;;;4988826;28;20136;-69
2022/03/28 07:35:37;;;;;;;14.57;5.03;;;6.50;99.90;;;;;;4989309;28;20137;-64
2022/03/28 07:38:10;;;;;;;8.65;4.18;;;6.50;99.90;;;;;;4986410;28;20138;-66
2022/03/28 07:40:43;;;;;;;9.88;4.10;;;6.60;99.90;;;;;;4985136;28;20061;-65
2022/03/28 07:43:11;;;;;;;7.93;4.88;;;6.60;99.90;;;;;;4987952;28;20612;-66
2022/03/28 07:45:38;;;;;;;9.98;4.53;;;6.60;99.90;;;;;;4992732;28;20054;-64
2022/03/28 07:48:06;;;;;;;9.40;6.03;;;6.60;99.90;;;;;;4987655;28;20057;-65
2022/03/28 07:50:34;;;;;;;10.30;5.10;;;6.70;99.90;;;;;;4993165;28;20050;-64
2022/03/28 07:53:02;;;;;;;11.80;5.65;;;6.70;99.90;;;;;;4991576;28;20605;-68
2022/03/28 07:55:29;;;;;;;15.82;5.30;;;6.70;99.90;;;;;;4993357;28;20085;-69
2022/03/28 07:57:59;;;;;;;10.38;4.90;;;6.80;99.90;;;;;;4994617;28;20057;-67
2022/03/28 08:00:26;;;;;;;15.67;6.83;;;6.80;99.90;;;;;;4996094;28;20049;-64
2022/03/28 08:02:53;;;;;;;7.78;4.20;;;6.80;99.90;;;;;;4998030;28;20387;-63
2022/03/28 08:05:20;;;;;;;9.75;4.78;;;6.80;99.90;;;;;;4998632;28;20888;-66
2022/03/28 08:07:51;;;;;;;8.40;4.68;;;6.80;99.90;;;;;;4998142;28;20137;-69
2022/03/28 08:10:19;;;;;;;7.40;5.22;;;6.80;99.90;;;;;;4999884;28;20671;-65
2022/03/28 08:12:48;;;;;;;13.63;5.78;;;6.90;99.90;;;;;;4992968;28;20061;-65
2022/03/28 08:15:16;;;;;;;10.15;5.68;;;6.90;99.90;;;;;;4994484;28;20049;-63
2022/03/28 08:17:43;;;;;;;9.95;4.65;;;6.90;99.90;;;;;;4998425;28;20100;-63
2022/03/28 08:20:12;;;;;;;9.55;5.22;;;6.90;99.90;;;;;;4992742;28;20046;-65
2022/03/28 08:22:41;;;;;;;9.73;6.03;;;7.00;99.90;;;;;;4996819;28;20046;-64
2022/03/28 08:25:08;;;;;;;18.15;5.93;;;7.00;99.90;;;;;;4992015;28;20058;-65
2022/03/28 08:27:35;;;;;;;11.52;5.25;;;7.10;99.90;;;;;;4990629;28;20076;-64
2022/03/28 08:30:04;;;;;;;17.00;7.30;;;7.10;99.90;;;;;;4990108;28;20069;-66
2022/03/28 08:32:31;;;;;;;13.63;6.28;;;7.10;99.90;;;;;;4995234;28;20058;-64
2022/03/28 08:34:58;;;;;;;11.90;5.30;;;7.10;99.90;;;;;;4990936;28;20100;-65
2022/03/28 08:37:27;;;;;;;13.60;5.70;;;7.10;99.90;;;;;;4990934;28;20089;-64
2022/03/28 08:39:55;;;;;;;10.32;6.00;;;7.10;99.90;;;;;;5011825;28;20069;-65
2022/03/28 08:42:23;;;;;;;23.15;8.18;;;7.20;99.90;;;;;;4987754;28;20053;-64
2022/03/28 08:44:51;;;;;;;17.58;6.07;;;7.30;99.90;;;;;;4995017;28;20480;-66
2022/03/28 08:47:21;;;;;;;10.40;5.68;;;7.30;99.90;;;;;;4994079;28;20700;-64
2022/03/28 08:49:53;;;;;;;12.98;5.60;;;7.20;99.90;;;;;;4993434;28;20054;-64
2022/03/28 08:52:21;;;;;;;17.75;7.22;;;7.30;99.90;;;;;;4997713;28;20038;-63
2022/03/28 08:54:48;;;;;;;22.67;6.20;;;7.40;99.90;;;;;;4988678;28;20200;-64
2022/03/28 08:57:16;;;;;;;21.58;6.90;;;7.40;99.90;;;;;;4994261;28;20122;-65
2022/03/28 08:59:43;;;;;;;16.98;6.00;;;7.40;99.90;;;;;;4990993;28;20054;-64
2022/03/28 09:02:29;;;;;;;12.90;6.65;;;7.50;99.90;;;;;;4999080;28;20080;-64
2022/03/28 09:04:57;;;;;;;14.38;7.05;;;7.40;99.90;;;;;;4988576;28;20048;-65
2022/03/28 09:07:28;;;;;;;26.15;7.68;;;7.40;99.90;;;;;;4994475;28;20042;-63
2022/03/28 09:10:06;;;;;;;17.73;8.10;;;7.40;99.90;;;;;;4991782;28;20058;-66
2022/03/28 09:12:40;;;;;;;16.98;7.82;;;7.60;99.90;;;;;;4995376;28;20367;-63
2022/03/28 09:15:14;;;;;;;18.00;7.63;;;7.60;99.90;;;;;;4998089;28;20108;-69
2022/03/28 09:17:41;;;;;;;22.15;8.40;;;7.70;99.90;;;;;;4994383;28;20077;-64
2022/03/28 09:20:09;;;;;;;12.13;7.15;;;7.80;99.90;;;;;;4985002;28;20894;-65
2022/03/28 09:22:41;;;;;;;14.60;5.95;;;7.80;99.90;;;;;;4996511;28;20053;-64
2022/03/28 09:25:16;;;;;;;11.30;7.07;;;7.90;99.90;;;;;;4991585;28;20153;-65
2022/03/28 09:27:44;;;;;;;21.33;8.10;;;8.00;99.90;;;;;;4999913;28;20090;-69
2022/03/28 09:30:19;;;;;;;19.30;9.65;;;8.00;99.90;;;;;;5001982;28;20130;-68
2022/03/28 09:32:49;;;;;;;11.38;5.07;;;8.00;99.90;;;;;;5002897;28;20053;-68
2022/03/28 09:35:21;;;;;;;14.65;6.30;;;8.00;99.90;;;;;;5000844;28;20097;-65
2022/03/28 09:37:48;;;;;;;15.65;6.90;;;8.00;99.90;;;;;;5001607;28;20056;-63
2022/03/28 09:40:49;;;;;;;9.25;6.22;;;7.70;99.90;;;;;;5002633;28;20123;-70
2022/03/28 09:43:17;;;;;;;;;;;7.60;99.90;;;;;;4991918;28;20052;-66
2022/03/28 09:45:50;;;;;;;22.98;7.93;;;7.40;99.90;;;;;;4992090;28;20005;-65
2022/03/28 09:48:22;;;;;;;23.45;8.00;;;7.30;99.90;;;;;;4995858;28;20053;-68
2022/03/28 09:50:55;;;;;;;22.58;7.65;;;7.20;99.90;;;;;;4994913;28;20184;-69
2022/03/28 09:53:31;;;;;;;16.42;7.45;;;7.10;99.90;;;;;;4997413;28;20133;-65
2022/03/28 09:56:00;;;;;;;17.20;9.43;;;7.00;99.90;;;;;;4994156;28;20471;-66
2022/03/28 09:58:42;;;;;;;14.77;7.17;;;7.00;99.90;;;;;;5001118;28;20080;-67
2022/03/28 10:01:12;;;;;;;19.58;8.73;;;7.00;99.90;;;;;;4998228;28;20057;-64
2022/03/28 10:03:39;;;;;;;15.40;7.22;;;7.10;99.90;;;;;;4996165;28;20121;-71
2022/03/28 10:06:07;;;;;;;9.73;6.60;;;7.30;99.90;;;;;;4993647;28;20050;-65
2022/03/28 10:08:36;;;;;;;17.08;7.53;;;7.40;99.90;;;;;;4996897;28;20062;-64
2022/03/28 10:11:04;;;;;;;37.63;8.73;;;7.50;99.90;;;;;;4994581;28;20760;-68
2022/03/28 10:13:31;;;;;;;14.82;7.25;;;7.60;99.90;;;;;;4997140;28;20141;-64
2022/03/28 10:16:00;;;;;;;16.45;8.52;;;7.70;99.90;;;;;;4998951;28;20053;-65
2022/03/28 10:18:35;;;;;;;18.23;7.15;;;7.80;99.90;;;;;;4998349;28;20144;-66
2022/03/28 10:21:07;;;;;;;15.68;7.55;;;8.00;99.90;;;;;;4999812;28;20105;-65
2022/03/28 10:24:01;;;;;;;14.05;6.22;;;8.00;99.90;;;;;;5000077;28;20128;-65
2022/03/28 10:26:34;;;;;;;14.05;7.22;;;8.00;99.90;;;;;;4996601;28;20451;-66
2022/03/28 10:29:15;;;;;;;13.13;7.20;;;8.00;99.90;;;;;;4996790;28;20123;-71
2022/03/28 10:32:03;;;;;;;12.05;7.15;;;8.00;99.90;;;;;;4997647;28;20061;-64
2022/03/28 10:34:52;;;;;;;12.18;6.50;;;7.90;99.90;;;;;;4991897;28;20038;-70
2022/03/28 10:37:25;;;;;;;18.52;8.35;;;8.00;99.90;;;;;;4995527;28;20495;-67
2022/03/28 10:40:15;;;;;;;15.07;6.72;;;8.10;99.90;;;;;;4996714;28;20532;-67
2022/03/28 10:42:49;;;;;;;13.23;7.93;;;8.10;99.90;;;;;;4996179;28;20051;-67
2022/03/28 10:45:19;;;;;;;19.50;7.40;;;8.20;99.90;;;;;;4986216;28;20046;-65
2022/03/28 10:47:50;;;;;;;18.50;6.95;;;8.30;99.90;;;;;;4991332;28;20046;-64
2022/03/28 10:50:24;;;;;;;16.77;6.55;;;8.40;99.90;;;;;;4990036;28;20483;-68
2022/03/28 10:53:18;;;;;;;16.25;7.60;;;8.50;99.90;;;;;;4992881;28;20061;-68
2022/03/28 10:55:48;;;;;;;12.63;7.78;;;8.60;99.90;;;;;;4988379;28;20074;-67
2022/03/28 10:58:22;;;;;;;24.88;9.25;;;8.70;99.90;;;;;;4987741;28;20654;-64
2022/03/28 11:01:08;;;;;;;14.98;7.07;;;8.90;99.90;;;;;;4997590;28;20683;-65
2022/03/28 11:03:48;;;;;;;12.00;6.70;;;9.00;99.90;;;;;;4996482;28;20482;-65
2022/03/28 11:06:17;;;;;;;11.65;6.10;;;9.00;99.90;;;;;;4999725;28;20073;-64
2022/03/28 11:08:57;;;;;;;14.48;8.43;;;9.10;99.90;;;;;;4995065;28;20143;-64
2022/03/28 11:11:27;;;;;;;21.20;7.45;;;9.20;99.90;;;;;;4988131;28;20078;-64
2022/03/28 11:14:00;;;;;;;;;;;9.30;99.90;;;;;;4979690;28;20072;-66
2022/03/28 11:16:50;;;;;;;13.50;6.55;;;9.40;99.90;;;;;;5000415;28;20328;-64
2022/03/28 11:19:25;;;;;;;15.18;6.97;;;9.60;99.90;;;;;;4994931;28;20105;-65
2022/03/28 11:22:05;;;;;;;16.30;6.25;;;9.70;99.90;;;;;;4997670;28;20136;-69
2022/03/28 11:24:54;;;;;;;14.88;6.72;;;9.60;99.90;;;;;;4998296;28;20170;-64
2022/03/28 11:27:23;;;;;;;14.23;6.25;;;9.50;99.90;;;;;;4998160;28;20082;-69
2022/03/28 11:30:04;;;;;;;11.83;6.40;;;9.30;99.90;;;;;;4996500;28;20550;-67
2022/03/28 11:32:35;;;;;;;14.05;6.80;;;9.20;99.90;;;;;;5000167;28;20050;-67
2022/03/28 11:35:04;;;;;;;20.83;6.90;;;9.00;99.90;;;;;;4998437;28;20411;-65
2022/03/28 11:37:31;;;;;;;10.60;5.93;;;9.00;99.90;;;;;;4976651;28;20053;-69
2022/03/28 11:40:05;;;;;;;20.98;5.65;;;8.90;99.90;;;;;;4993469;28;20141;-65
2022/03/28 11:42:35;;;;;;;30.13;7.93;;;8.80;99.90;;;;;;5001704;28;20145;-64
2022/03/28 11:45:10;;;;;;;10.13;5.07;;;8.80;99.90;;;;;;4998146;28;20064;-66
2022/03/28 11:47:48;;;;;;;11.57;5.57;;;8.80;99.90;;;;;;4993697;28;20070;-65
2022/03/28 11:50:16;;;;;;;14.82;6.18;;;8.80;99.90;;;;;;4997041;28;20105;-64
2022/03/28 11:52:50;;;;;;;26.98;9.45;;;8.80;99.90;;;;;;4996409;28;20060;-65
2022/03/28 11:55:24;;;;;;;16.08;6.38;;;8.90;99.90;;;;;;4998445;28;20866;-65
2022/03/28 12:00:40;;;;;;;22.13;6.20;;;8.90;99.90;;;;;;4994395;28;20069;-66
2022/03/28 12:03:10;;;;;;;13.55;4.93;;;9.00;99.90;;;;;;4996911;28;20061;-64
2022/03/28 12:05:45;;;;;;;11.50;4.15;;;9.20;99.90;;;;;;4999297;28;20089;-67
2022/03/28 12:08:17;;;;;;;14.85;5.18;;;9.40;99.90;;;;;;4998230;28;20483;-66
2022/03/28 12:10:54;;;;;;;12.02;5.50;;;9.60;99.90;;;;;;4998482;28;20054;-67
2022/03/28 12:13:23;;;;;;;27.42;5.28;;;9.60;99.90;;;;;;4993149;28;20691;-66
2022/03/28 12:15:52;;;;;;;14.35;5.30;;;9.40;99.90;;;;;;4993087;28;20066;-64
2022/03/28 12:18:22;;;;;;;17.48;4.78;;;9.20;99.90;;;;;;4995393;28;20137;-64
2022/03/28 12:20:53;;;;;;;9.48;5.10;;;9.10;99.90;;;;;;4993750;28;20053;-65
2022/03/28 12:23:25;;;;;;;12.27;5.30;;;9.00;99.90;;;;;;4991654;28;20061;-66
2022/03/28 12:25:55;;;;;;;17.17;5.13;;;8.90;99.90;;;;;;4991071;28;20057;-65
2022/03/28 12:28:30;;;;;;;14.18;4.20;;;8.90;99.90;;;;;;4994807;28;20081;-65
2022/03/28 12:30:59;;;;;;;11.55;5.40;;;8.90;99.90;;;;;;4991176;28;20709;-66
2022/03/28 12:33:29;;;;;;;9.80;4.82;;;9.00;99.90;;;;;;4996945;28;20054;-66
2022/03/28 12:36:05;;;;;;;14.10;6.97;;;8.90;99.90;;;;;;4999882;28;20072;-66
2022/03/28 12:38:38;;;;;;;11.05;4.18;;;8.80;99.90;;;;;;4997409;28;20900;-66
2022/03/28 12:41:11;;;;;;;10.23;4.30;;;8.80;99.90;;;;;;4992410;28;20137;-64
2022/03/28 12:43:45;;;;;;;10.98;6.53;;;8.70;99.90;;;;;;4998852;28;20132;-64
2022/03/28 12:46:12;;;;;;;7.88;4.30;;;8.60;99.90;;;;;;4995013;28;20046;-68
2022/03/28 12:48:49;;;;;;;10.50;4.93;;;8.40;99.90;;;;;;4999102;28;20229;-64
2022/03/28 12:51:29;;;;;;;8.73;4.22;;;8.30;99.90;;;;;;4993001;28;20058;-65
2022/03/28 12:54:11;;;;;;;11.55;5.28;;;8.40;99.90;;;;;;4997914;28;20132;-67
2022/03/28 12:56:56;;;;;;;23.20;6.78;;;8.30;99.90;;;;;;4998780;28;20418;-65
2022/03/28 12:59:27;;;;;;;23.15;6.07;;;8.40;99.90;;;;;;4991512;28;20848;-65
2022/03/28 13:02:10;;;;;;;24.33;7.38;;;8.50;99.90;;;;;;4994678;28;20069;-64
2022/03/28 13:04:49;;;;;;;13.98;4.28;;;8.60;99.90;;;;;;4994184;28;20124;-67
2022/03/28 13:07:18;;;;;;;27.25;5.50;;;8.60;99.90;;;;;;4997570;28;20157;-65
2022/03/28 13:10:03;;;;;;;12.05;4.70;;;8.60;99.90;;;;;;4998890;28;20141;-65